Time;durP1;ratioP1;P1;durP2;ratioP2;P2;SDS_P1;SDS_P2;PMS_P1;PMS_P2;Temp;Humidity;BMP_temperature;BMP_pressure;BME280_temperature;BME280_humidity;BME280_pressure;Samples;Min_cycle;Max_cycle;Signal;HPM_P1;HPM_P2
2022/11/09 00:02:25;;;;;;;2.72;2.47;;;15.30;64.60;;;;;;5025161;28;20336;-70
2022/11/09 00:04:50;;;;;;;2.67;2.30;;;15.30;64.60;;;;;;5025149;28;20014;-71
2022/11/09 00:07:16;;;;;;;3.53;2.60;;;15.30;64.60;;;;;;5025005;28;20065;-72
2022/11/09 00:09:42;;;;;;;3.10;2.60;;;15.30;64.60;;;;;;5025029;28;20093;-71
2022/11/09 00:12:08;;;;;;;3.80;2.90;;;15.30;64.50;;;;;;5025029;28;20021;-71
2022/11/09 00:14:34;;;;;;;3.10;2.67;;;15.30;64.60;;;;;;5024964;28;20024;-71
2022/11/09 00:17:00;;;;;;;3.60;2.80;;;15.30;64.60;;;;;;5024904;28;20021;-71
2022/11/09 00:19:26;;;;;;;3.70;2.90;;;15.30;64.60;;;;;;5024720;28;20014;-71
2022/11/09 00:21:52;;;;;;;4.25;3.10;;;15.30;64.60;;;;;;5040141;28;20018;-71
2022/11/09 00:24:18;;;;;;;4.50;2.95;;;15.30;64.60;;;;;;5024732;28;20025;-71
2022/11/09 00:26:43;;;;;;;3.28;2.60;;;15.30;64.60;;;;;;5024515;28;20025;-71
2022/11/09 00:29:09;;;;;;;4.13;3.33;;;15.30;64.70;;;;;;5039816;28;20041;-72
2022/11/09 00:31:35;;;;;;;4.18;2.85;;;15.30;64.70;;;;;;5024629;28;20026;-71
2022/11/09 00:34:01;;;;;;;3.30;2.95;;;15.30;64.70;;;;;;5024603;28;20213;-71
2022/11/09 00:36:28;;;;;;;3.67;3.25;;;15.30;64.70;;;;;;5039869;28;20018;-71
2022/11/09 00:38:59;;;;;;;3.10;2.58;;;15.30;64.70;;;;;;5039779;28;20336;-71
2022/11/09 00:41:26;;;;;;;4.38;2.80;;;15.30;64.70;;;;;;5039818;28;20221;-71
2022/11/09 00:43:52;;;;;;;2.67;2.47;;;15.30;64.70;;;;;;5023290;28;20014;-71
2022/11/09 00:46:18;;;;;;;3.35;2.72;;;15.30;64.60;;;;;;5024441;28;20020;-71
2022/11/09 00:48:44;;;;;;;3.30;2.50;;;15.30;64.70;;;;;;5024366;28;20021;-71
2022/11/09 00:51:11;;;;;;;3.08;2.55;;;15.30;64.60;;;;;;5024325;28;20025;-71
2022/11/09 00:53:37;;;;;;;3.53;2.60;;;15.30;64.60;;;;;;5039560;28;20101;-71
2022/11/09 00:56:09;;;;;;;4.35;3.03;;;15.30;64.60;;;;;;5024257;28;20359;-71
2022/11/09 00:58:37;;;;;;;4.35;2.70;;;15.30;64.60;;;;;;5039443;28;20037;-71
2022/11/09 01:01:12;;;;;;;3.22;2.65;;;15.30;64.60;;;;;;5024153;28;20021;-72
2022/11/09 01:03:38;;;;;;;3.85;2.83;;;15.30;64.60;;;;;;5039457;28;20304;-71
2022/11/09 01:06:04;;;;;;;3.85;2.92;;;15.30;64.60;;;;;;5024098;28;20018;-71
2022/11/09 01:08:31;;;;;;;2.83;2.55;;;15.30;64.70;;;;;;5039336;28;20044;-72
2022/11/09 01:11:02;;;;;;;3.70;3.08;;;15.30;64.70;;;;;;5024022;28;20014;-71
2022/11/09 01:13:28;;;;;;;4.38;2.85;;;15.30;64.70;;;;;;5024020;28;20052;-71
2022/11/09 01:15:54;;;;;;;3.38;2.90;;;15.20;64.60;;;;;;5023980;28;20463;-71
2022/11/09 01:18:20;;;;;;;3.80;2.85;;;15.30;64.70;;;;;;5023860;28;20022;-71
2022/11/09 01:20:48;;;;;;;3.55;2.55;;;15.30;65.30;;;;;;5039210;28;20471;-71
2022/11/09 01:23:16;;;;;;;3.70;3.10;;;15.30;64.60;;;;;;5039240;28;20018;-71
2022/11/09 01:25:42;;;;;;;3.97;3.17;;;15.30;64.60;;;;;;5023873;28;20064;-71
2022/11/09 01:28:09;;;;;;;3.83;2.95;;;15.30;64.60;;;;;;5038990;28;20241;-70
2022/11/09 01:30:38;;;;;;;3.70;2.90;;;15.30;64.70;;;;;;5023769;28;20162;-72
2022/11/09 01:33:05;;;;;;;3.50;2.67;;;15.30;64.60;;;;;;5023764;28;20057;-72
2022/11/09 01:35:39;;;;;;;3.00;2.70;;;15.20;64.60;;;;;;5023735;28;20022;-73
2022/11/09 01:38:06;;;;;;;3.05;2.65;;;15.20;64.60;;;;;;5023098;28;20017;-71
2022/11/09 01:40:33;;;;;;;3.58;2.65;;;15.20;64.60;;;;;;5023638;28;20072;-71
2022/11/09 01:43:15;;;;;;;3.80;2.92;;;15.30;64.60;;;;;;5023635;28;20014;-71
2022/11/09 01:45:45;;;;;;;2.90;2.45;;;15.30;64.60;;;;;;5038981;28;20253;-71
2022/11/09 01:48:23;;;;;;;3.78;2.75;;;15.30;64.60;;;;;;5023598;28;20202;-72
2022/11/09 01:50:54;;;;;;;3.67;2.80;;;15.30;64.60;;;;;;5023639;28;20046;-71
2022/11/09 01:53:25;;;;;;;3.35;3.00;;;15.20;64.60;;;;;;5038860;28;20044;-72
2022/11/09 01:55:55;;;;;;;4.25;2.97;;;15.20;64.50;;;;;;5023569;28;20014;-71
2022/11/09 01:58:47;;;;;;;3.35;2.70;;;15.30;64.60;;;;;;5023439;28;20033;-71
2022/11/09 02:01:16;;;;;;;3.33;2.67;;;15.20;64.70;;;;;;5020476;28;20030;-71
2022/11/09 02:03:44;;;;;;;;;;;15.20;64.60;;;;;;5023896;28;20014;-72
2022/11/09 02:06:13;;;;;;;3.90;3.05;;;15.20;64.60;;;;;;5022301;28;19905;-72
2022/11/09 02:08:40;;;;;;;3.55;2.65;;;15.20;64.60;;;;;;5038733;28;20189;-71
2022/11/09 02:11:11;;;;;;;3.05;2.75;;;15.30;64.60;;;;;;5023380;28;20018;-71
2022/11/09 02:13:41;;;;;;;3.70;2.45;;;15.20;64.50;;;;;;5023389;28;20240;-71
2022/11/09 02:16:10;;;;;;;3.40;2.60;;;15.20;64.60;;;;;;5023629;28;20022;-71
2022/11/09 02:18:38;;;;;;;4.13;2.75;;;15.20;64.50;;;;;;5023249;28;20022;-71
2022/11/09 02:21:04;;;;;;;4.25;3.58;;;15.20;64.60;;;;;;5023284;28;20152;-71
2022/11/09 02:23:30;;;;;;;2.83;2.45;;;15.20;65.20;;;;;;5023272;28;20017;-72
2022/11/09 02:26:06;;;;;;;3.35;2.63;;;15.20;64.60;;;;;;5023275;28;20018;-71
2022/11/09 02:28:34;;;;;;;2.88;2.53;;;15.20;64.60;;;;;;5023135;28;20038;-71
2022/11/09 02:31:01;;;;;;;4.70;3.13;;;15.20;64.70;;;;;;5038509;28;20064;-72
2022/11/09 02:33:27;;;;;;;3.35;2.53;;;15.20;64.60;;;;;;5038582;28;20041;-71
2022/11/09 02:35:52;;;;;;;3.05;2.47;;;15.20;64.50;;;;;;5023126;28;20025;-71
2022/11/09 02:38:18;;;;;;;3.42;3.00;;;15.20;64.60;;;;;;5023079;28;20041;-72
2022/11/09 02:40:47;;;;;;;3.78;2.72;;;15.20;64.60;;;;;;5023135;28;20025;-72
2022/11/09 02:43:14;;;;;;;3.50;2.72;;;15.20;64.60;;;;;;5038420;28;20156;-72
2022/11/09 02:45:40;;;;;;;3.28;2.75;;;15.20;64.60;;;;;;5023085;28;20030;-72
2022/11/09 02:48:06;;;;;;;3.00;2.55;;;15.20;64.60;;;;;;5038340;28;20013;-72
2022/11/09 02:50:32;;;;;;;3.92;3.15;;;15.20;64.60;;;;;;5025073;28;20428;-72
2022/11/09 02:52:57;;;;;;;3.00;2.70;;;15.20;64.70;;;;;;5026536;28;20077;-72
2022/11/09 02:55:23;;;;;;;3.97;2.88;;;15.20;64.60;;;;;;5041807;28;20022;-72
2022/11/09 02:57:49;;;;;;;4.18;2.92;;;15.20;64.60;;;;;;5041770;28;20067;-72
2022/11/09 03:00:15;;;;;;;3.60;2.55;;;15.20;64.70;;;;;;5026276;28;20045;-72
2022/11/09 03:02:41;;;;;;;2.88;2.58;;;15.20;64.70;;;;;;5041603;28;20283;-72
2022/11/09 03:05:07;;;;;;;3.30;2.50;;;15.20;65.30;;;;;;5041620;28;20018;-71
2022/11/09 03:07:33;;;;;;;3.83;2.85;;;15.20;64.70;;;;;;5026274;28;20261;-72
2022/11/09 03:09:58;;;;;;;3.25;2.45;;;15.20;64.70;;;;;;5026168;28;20091;-72
2022/11/09 03:12:30;;;;;;;3.25;2.70;;;15.20;64.70;;;;;;5026094;28;20022;-72
2022/11/09 03:15:01;;;;;;;4.00;3.00;;;15.20;64.80;;;;;;5026108;28;20014;-72
2022/11/09 03:17:27;;;;;;;3.03;2.50;;;15.20;64.70;;;;;;5026125;28;20315;-71
2022/11/09 03:19:54;;;;;;;3.80;3.17;;;15.20;64.70;;;;;;5041261;28;20022;-71
2022/11/09 03:22:20;;;;;;;2.95;2.58;;;15.20;64.70;;;;;;5026016;28;20328;-72
2022/11/09 03:24:46;;;;;;;3.15;2.80;;;15.20;64.70;;;;;;5025917;28;20306;-70
2022/11/09 03:27:12;;;;;;;3.53;2.72;;;15.20;64.70;;;;;;5041257;28;20098;-71
2022/11/09 03:29:38;;;;;;;3.50;2.78;;;15.20;64.70;;;;;;5025353;28;20440;-71
2022/11/09 03:32:04;;;;;;;3.75;2.90;;;15.20;64.70;;;;;;5041138;28;20093;-71
2022/11/09 03:34:30;;;;;;;3.67;2.78;;;15.20;64.60;;;;;;5025717;28;20102;-71
2022/11/09 03:36:56;;;;;;;3.60;3.10;;;15.20;64.70;;;;;;5041015;28;20209;-72
2022/11/09 03:39:22;;;;;;;4.57;3.05;;;15.20;64.70;;;;;;5025539;28;20340;-71
2022/11/09 03:41:48;;;;;;;3.33;2.85;;;15.20;64.70;;;;;;5025607;28;20020;-72
2022/11/09 03:44:14;;;;;;;4.07;3.17;;;15.10;64.70;;;;;;5025566;28;20045;-71
2022/11/09 03:46:39;;;;;;;3.42;2.53;;;15.10;64.80;;;;;;5025514;28;20013;-71
2022/11/09 03:49:05;;;;;;;3.78;3.00;;;15.10;64.80;;;;;;5025406;28;20105;-71
2022/11/09 03:51:31;;;;;;;3.42;2.90;;;15.10;64.70;;;;;;5025405;28;20068;-71
2022/11/09 03:53:57;;;;;;;4.90;2.92;;;15.10;64.80;;;;;;5025335;28;20024;-72
2022/11/09 03:56:23;;;;;;;3.50;2.75;;;15.10;64.70;;;;;;5025332;28;20210;-72
2022/11/09 03:58:48;;;;;;;3.67;2.60;;;15.10;64.80;;;;;;5025137;28;20022;-71
2022/11/09 04:01:14;;;;;;;3.53;2.80;;;15.10;64.80;;;;;;5024698;28;20305;-71
2022/11/09 04:03:40;;;;;;;4.15;3.20;;;15.10;64.80;;;;;;5025148;28;20314;-72
2022/11/09 04:06:09;;;;;;;3.40;2.72;;;15.20;64.80;;;;;;5025158;28;20427;-71
2022/11/09 04:08:34;;;;;;;4.75;2.83;;;15.10;64.80;;;;;;5025072;28;20022;-71
2022/11/09 04:11:00;;;;;;;3.38;2.92;;;15.10;64.80;;;;;;5040396;28;20060;-72
2022/11/09 04:13:26;;;;;;;3.17;2.78;;;15.10;64.80;;;;;;5040400;28;20029;-72
2022/11/09 04:15:52;;;;;;;3.25;2.58;;;15.10;64.80;;;;;;5024957;28;20037;-71
2022/11/09 04:18:17;;;;;;;3.50;2.95;;;15.10;64.80;;;;;;5024790;28;20018;-72
2022/11/09 04:20:43;;;;;;;2.75;2.47;;;15.10;64.80;;;;;;5040158;28;20014;-71
2022/11/09 04:23:11;;;;;;;2.53;2.33;;;15.10;64.80;;;;;;5024780;28;20074;-71
2022/11/09 04:25:39;;;;;;;3.47;2.70;;;15.10;64.80;;;;;;5024825;28;20037;-71
2022/11/09 04:28:07;;;;;;;3.92;2.70;;;15.10;64.80;;;;;;5024577;28;20061;-71
2022/11/09 04:30:34;;;;;;;4.38;3.30;;;15.10;64.80;;;;;;5024709;28;20017;-71
2022/11/09 04:33:00;;;;;;;3.25;2.78;;;15.10;64.80;;;;;;5024643;28;20026;-72
2022/11/09 04:35:28;;;;;;;3.65;2.50;;;15.10;65.00;;;;;;5024592;28;20017;-72
2022/11/09 04:38:02;;;;;;;2.80;2.58;;;15.10;64.90;;;;;;5024612;28;20025;-71
2022/11/09 04:40:30;;;;;;;3.33;2.58;;;15.10;65.00;;;;;;5039732;28;20028;-72
2022/11/09 04:43:05;;;;;;;3.03;2.65;;;15.10;64.90;;;;;;5039794;28;20018;-71
2022/11/09 04:45:32;;;;;;;3.50;3.00;;;15.10;64.90;;;;;;5024496;28;20026;-71
2022/11/09 04:48:00;;;;;;;2.85;2.55;;;15.10;64.90;;;;;;5024412;28;20359;-71
2022/11/09 04:50:26;;;;;;;4.10;3.00;;;15.10;64.90;;;;;;5024386;28;20025;-72
2022/11/09 04:52:52;;;;;;;3.42;2.80;;;15.10;64.80;;;;;;5024353;28;20021;-72
2022/11/09 04:55:18;;;;;;;3.38;2.97;;;15.10;64.80;;;;;;5024255;28;20313;-72
2022/11/09 04:57:44;;;;;;;3.92;2.95;;;15.10;64.90;;;;;;5024290;28;20025;-72
2022/11/09 05:00:10;;;;;;;3.22;2.83;;;15.10;64.90;;;;;;5039421;28;20052;-72
2022/11/09 05:02:36;;;;;;;2.90;2.60;;;15.10;64.90;;;;;;5024135;28;20025;-72
2022/11/09 05:05:01;;;;;;;4.50;3.15;;;15.10;64.90;;;;;;5024118;28;20018;-71
2022/11/09 05:07:27;;;;;;;2.88;2.58;;;15.10;64.90;;;;;;5024068;28;20022;-71
2022/11/09 05:09:53;;;;;;;2.97;2.67;;;15.10;64.80;;;;;;5022850;28;20028;-72
2022/11/09 05:12:18;;;;;;;3.58;2.83;;;15.10;64.80;;;;;;5023220;28;20017;-72
2022/11/09 05:14:44;;;;;;;3.35;3.05;;;15.10;64.80;;;;;;5024028;28;20321;-71
2022/11/09 05:17:10;;;;;;;3.15;2.40;;;15.00;64.90;;;;;;5023911;28;20313;-71
2022/11/09 05:19:36;;;;;;;2.75;2.47;;;15.10;64.90;;;;;;5023872;28;20026;-71
2022/11/09 05:23:57;;;;;;;3.55;2.67;;;15.10;64.90;;;;;;5039162;28;20013;-71
2022/11/09 05:24:47;;;;;;;3.60;2.95;;;15.10;64.90;;;;;;5023894;28;20018;-71
2022/11/09 05:27:13;;;;;;;4.53;3.15;;;15.00;65.00;;;;;;5039186;28;20018;-72
2022/11/09 05:29:39;;;;;;;3.45;2.85;;;15.00;64.90;;;;;;5038979;28;20053;-72
2022/11/09 05:32:04;;;;;;;3.40;2.70;;;15.10;65.00;;;;;;5023759;28;20026;-71
2022/11/09 05:34:30;;;;;;;2.78;2.28;;;15.00;64.80;;;;;;5039029;28;20064;-72
2022/11/09 05:36:56;;;;;;;3.70;2.92;;;15.00;64.90;;;;;;5023729;28;20329;-72
2022/11/09 05:39:21;;;;;;;3.50;2.95;;;15.00;64.90;;;;;;5023605;28;20409;-72
2022/11/09 05:41:47;;;;;;;3.55;2.67;;;15.10;65.00;;;;;;5038977;28;20018;-72
2022/11/09 05:44:13;;;;;;;3.95;2.97;;;15.10;64.90;;;;;;5023606;28;20018;-71
2022/11/09 05:46:39;;;;;;;3.10;2.38;;;15.10;64.90;;;;;;5038921;28;20021;-72
2022/11/09 05:49:04;;;;;;;4.22;3.05;;;15.10;64.90;;;;;;5023557;28;20017;-72
2022/11/09 05:51:30;;;;;;;3.78;3.05;;;15.10;64.90;;;;;;5038868;28;20032;-72
2022/11/09 05:53:56;;;;;;;3.13;2.53;;;15.10;64.90;;;;;;5023539;28;20037;-72
2022/11/09 05:56:22;;;;;;;2.85;2.42;;;15.10;64.80;;;;;;5023562;28;20026;-72
2022/11/09 05:58:48;;;;;;;4.32;3.20;;;15.00;64.80;;;;;;5023443;28;20265;-72
2022/11/09 06:01:15;;;;;;;3.63;2.95;;;15.10;64.80;;;;;;5023452;28;20021;-71
2022/11/09 06:03:42;;;;;;;3.63;2.80;;;15.00;64.90;;;;;;5023485;28;20018;-71
2022/11/09 06:06:14;;;;;;;3.22;2.83;;;15.10;64.90;;;;;;5023440;28;20010;-71
2022/11/09 06:08:40;;;;;;;3.00;2.53;;;15.10;64.80;;;;;;5038751;28;20305;-71
2022/11/09 06:11:08;;;;;;;2.67;2.45;;;15.10;64.80;;;;;;5023378;28;20213;-71
2022/11/09 06:13:34;;;;;;;3.80;3.33;;;15.10;64.70;;;;;;5023355;28;20021;-72
2022/11/09 06:16:01;;;;;;;2.83;2.53;;;15.10;64.80;;;;;;5023348;28;20026;-71
2022/11/09 06:18:29;;;;;;;3.65;3.08;;;15.10;64.80;;;;;;5023244;28;20014;-71
2022/11/09 06:20:58;;;;;;;2.97;2.60;;;15.10;64.70;;;;;;5038607;28;20017;-71
2022/11/09 06:23:24;;;;;;;3.60;2.72;;;15.10;64.80;;;;;;5038997;28;20018;-72
2022/11/09 06:25:58;;;;;;;3.47;2.63;;;15.00;64.70;;;;;;5042351;28;20021;-71
2022/11/09 06:28:24;;;;;;;2.97;2.67;;;15.10;64.80;;;;;;5026843;28;20057;-71
2022/11/09 06:30:50;;;;;;;3.92;3.15;;;15.10;64.70;;;;;;5026990;28;20046;-71
2022/11/09 06:33:15;;;;;;;4.10;2.95;;;15.10;64.70;;;;;;5026867;28;20073;-71
2022/11/09 06:35:41;;;;;;;3.80;2.65;;;15.10;64.70;;;;;;5042109;28;20056;-71
2022/11/09 06:38:08;;;;;;;4.93;3.42;;;15.00;64.70;;;;;;5026792;28;20205;-71
2022/11/09 06:40:35;;;;;;;3.75;2.97;;;15.00;64.70;;;;;;5026700;28;20081;-71
2022/11/09 06:43:02;;;;;;;3.83;2.95;;;15.10;64.70;;;;;;5026777;28;20018;-72
2022/11/09 06:45:28;;;;;;;3.05;2.55;;;15.10;64.70;;;;;;5042019;28;20021;-71
2022/11/09 06:47:59;;;;;;;3.47;2.88;;;15.10;64.80;;;;;;5042000;28;20068;-72
2022/11/09 06:50:27;;;;;;;2.95;2.45;;;15.10;64.70;;;;;;5041951;28;20309;-71
2022/11/09 06:52:58;;;;;;;5.60;2.95;;;15.10;64.60;;;;;;5026575;28;20033;-71
2022/11/09 06:55:27;;;;;;;3.60;2.67;;;15.10;64.70;;;;;;5026502;28;20028;-72
2022/11/09 06:57:54;;;;;;;3.03;2.58;;;15.10;64.70;;;;;;5041841;28;20236;-71
2022/11/09 07:00:21;;;;;;;3.25;2.63;;;15.10;64.70;;;;;;5041703;28;20256;-71
2022/11/09 07:02:46;;;;;;;3.30;2.80;;;15.10;64.60;;;;;;5041724;28;20014;-72
2022/11/09 07:05:12;;;;;;;3.78;3.10;;;15.10;64.50;;;;;;5026260;28;20121;-71
2022/11/09 07:07:38;;;;;;;2.63;2.35;;;15.10;64.60;;;;;;5041614;28;20018;-72
2022/11/09 07:10:04;;;;;;;3.55;3.13;;;15.10;64.60;;;;;;5026228;28;20253;-71
2022/11/09 07:12:32;;;;;;;2.92;2.63;;;15.10;64.70;;;;;;5041503;28;20371;-72
2022/11/09 07:14:57;;;;;;;3.72;3.08;;;15.00;64.70;;;;;;5041463;28;20309;-72
2022/11/09 07:17:23;;;;;;;3.25;2.83;;;15.10;64.70;;;;;;5026062;28;20024;-72
2022/11/09 07:19:49;;;;;;;3.30;2.80;;;15.10;64.70;;;;;;5041366;28;20025;-72
2022/11/09 07:22:15;;;;;;;3.90;2.78;;;15.10;64.70;;;;;;5025906;28;20357;-72
2022/11/09 07:24:41;;;;;;;3.13;2.53;;;15.10;64.70;;;;;;5025893;28;20314;-72
2022/11/09 07:27:06;;;;;;;3.03;2.67;;;15.10;64.70;;;;;;5041252;28;20265;-71
2022/11/09 07:29:32;;;;;;;2.92;2.63;;;15.10;64.60;;;;;;5041130;28;20052;-71
2022/11/09 07:31:58;;;;;;;3.70;3.08;;;15.10;64.60;;;;;;5025779;28;20022;-72
2022/11/09 07:34:23;;;;;;;3.40;2.67;;;15.10;64.70;;;;;;5025745;28;20022;-71
2022/11/09 07:36:52;;;;;;;3.67;2.78;;;15.10;64.70;;;;;;5024907;28;20084;-72
2022/11/09 07:39:18;;;;;;;4.28;3.13;;;15.10;64.70;;;;;;5040977;28;20256;-71
2022/11/09 07:41:47;;;;;;;2.72;2.50;;;15.10;64.70;;;;;;5025638;28;20037;-72
2022/11/09 07:44:17;;;;;;;2.97;2.65;;;15.10;64.80;;;;;;5025569;28;20018;-73
2022/11/09 07:46:45;;;;;;;3.38;2.67;;;15.10;64.70;;;;;;5025510;28;20020;-72
2022/11/09 07:49:12;;;;;;;3.20;2.90;;;15.10;64.70;;;;;;5025472;28;20085;-71
2022/11/09 07:51:38;;;;;;;3.35;2.80;;;15.00;64.70;;;;;;5040838;28;20026;-72
2022/11/09 07:54:04;;;;;;;3.53;2.83;;;15.10;64.80;;;;;;5025379;28;20077;-72
2022/11/09 07:56:30;;;;;;;4.00;3.00;;;15.10;64.80;;;;;;5025374;28;20025;-72
2022/11/09 07:58:56;;;;;;;3.30;2.55;;;15.10;64.80;;;;;;5025243;28;20022;-72
2022/11/09 08:01:22;;;;;;;3.65;2.92;;;15.10;64.80;;;;;;5025205;28;20310;-71
2022/11/09 08:03:47;;;;;;;4.05;2.90;;;15.00;64.70;;;;;;5025144;28;20022;-71
2022/11/09 08:06:13;;;;;;;4.28;2.95;;;15.00;64.80;;;;;;5025173;28;20055;-72
2022/11/09 08:08:39;;;;;;;3.08;2.78;;;15.00;64.80;;;;;;5025084;28;20205;-72
2022/11/09 08:11:05;;;;;;;3.65;2.70;;;15.10;64.80;;;;;;5025045;28;20022;-72
2022/11/09 08:13:30;;;;;;;3.85;2.95;;;15.00;64.80;;;;;;5024940;28;20309;-72
2022/11/09 08:15:59;;;;;;;3.33;2.90;;;15.00;64.80;;;;;;5024953;28;20325;-71
2022/11/09 08:18:25;;;;;;;2.90;2.60;;;15.00;64.80;;;;;;5024889;28;20076;-71
2022/11/09 08:20:51;;;;;;;4.45;3.20;;;15.00;64.80;;;;;;5024896;28;20018;-71
2022/11/09 08:23:19;;;;;;;2.65;2.28;;;15.00;64.80;;;;;;5040144;28;20125;-71
2022/11/09 08:25:46;;;;;;;4.22;3.20;;;15.10;64.80;;;;;;5040105;28;20260;-71
2022/11/09 08:28:14;;;;;;;3.33;2.67;;;15.00;64.70;;;;;;5024636;28;20042;-71
2022/11/09 08:30:39;;;;;;;4.32;3.05;;;15.10;64.70;;;;;;5024777;28;20018;-72
2022/11/09 08:33:05;;;;;;;4.10;3.30;;;15.10;64.60;;;;;;5039930;28;20028;-71
2022/11/09 08:35:31;;;;;;;3.28;2.70;;;15.10;64.70;;;;;;5024650;28;20085;-73
2022/11/09 08:38:01;;;;;;;3.13;2.72;;;15.10;64.70;;;;;;5039896;28;20044;-71
2022/11/09 08:40:27;;;;;;;3.40;3.05;;;15.10;64.70;;;;;;5024509;28;20213;-71
2022/11/09 08:42:53;;;;;;;3.05;2.70;;;15.10;64.60;;;;;;5039829;28;20088;-71
2022/11/09 08:45:20;;;;;;;3.22;2.63;;;15.10;64.60;;;;;;5024504;28;20029;-71
2022/11/09 08:47:46;;;;;;;3.67;3.00;;;15.10;64.60;;;;;;5039672;28;20018;-71
2022/11/09 08:50:13;;;;;;;2.65;2.38;;;15.10;64.60;;;;;;5024448;28;20089;-72
2022/11/09 08:52:39;;;;;;;2.85;2.53;;;15.10;64.70;;;;;;5024337;28;20028;-71
2022/11/09 08:55:06;;;;;;;2.83;2.33;;;15.10;64.70;;;;;;5024319;28;20022;-72
2022/11/09 08:57:32;;;;;;;2.70;2.47;;;15.10;64.70;;;;;;5024225;28;20026;-72
2022/11/09 08:59:58;;;;;;;3.65;2.92;;;15.10;64.60;;;;;;5024130;28;20415;-71
2022/11/09 09:02:24;;;;;;;3.95;3.05;;;15.10;64.70;;;;;;5039508;28;20089;-72
2022/11/09 09:04:49;;;;;;;2.95;2.65;;;15.10;64.60;;;;;;5024101;28;20205;-71
2022/11/09 09:07:15;;;;;;;2.35;2.15;;;15.10;64.60;;;;;;5024060;28;20213;-71
2022/11/09 09:09:41;;;;;;;3.33;2.72;;;15.10;64.60;;;;;;5024072;28;20021;-72
2022/11/09 09:12:08;;;;;;;4.13;3.13;;;15.10;64.70;;;;;;5024022;28;20032;-72
2022/11/09 09:14:34;;;;;;;3.20;2.85;;;15.10;64.60;;;;;;5039303;28;20041;-71
2022/11/09 09:17:00;;;;;;;2.97;2.67;;;15.10;64.60;;;;;;5039233;28;20101;-71
2022/11/09 09:19:26;;;;;;;3.40;2.85;;;15.10;64.60;;;;;;5039210;28;20017;-71
2022/11/09 09:21:52;;;;;;;3.17;2.85;;;15.10;64.60;;;;;;5023875;28;20018;-71
2022/11/09 09:24:17;;;;;;;3.38;3.03;;;15.10;64.60;;;;;;5023840;28;20021;-71
2022/11/09 09:26:44;;;;;;;3.83;2.85;;;15.10;64.60;;;;;;5023853;28;20030;-72
2022/11/09 09:29:12;;;;;;;3.75;2.97;;;15.10;64.60;;;;;;5023677;28;20114;-71
2022/11/09 09:31:38;;;;;;;2.72;2.38;;;15.10;64.50;;;;;;5023774;28;20368;-72
2022/11/09 09:34:04;;;;;;;2.83;2.30;;;15.10;64.60;;;;;;5023806;28;20152;-71
2022/11/09 09:36:30;;;;;;;3.78;3.08;;;15.10;64.60;;;;;;5023762;28;20030;-71
2022/11/09 09:38:56;;;;;;;2.65;2.10;;;15.10;64.60;;;;;;5038928;28;20317;-71
2022/11/09 09:41:34;;;;;;;3.17;2.70;;;15.10;64.60;;;;;;5023634;28;20025;-71
2022/11/09 09:44:38;;;;;;;2.60;2.40;;;15.10;64.50;;;;;;5038987;28;20014;-72
2022/11/09 09:47:28;;;;;;;2.50;2.30;;;15.10;64.50;;;;;;5036969;28;20321;-71
2022/11/09 09:49:59;;;;;;;2.20;2.00;;;15.20;64.50;;;;;;5023628;28;20025;-71
2022/11/09 09:52:46;;;;;;;2.95;2.47;;;15.10;64.30;;;;;;5023589;28;20268;-72
2022/11/09 09:55:32;;;;;;;3.30;2.60;;;15.20;64.40;;;;;;5023594;28;20026;-72
2022/11/09 09:58:15;;;;;;;3.10;2.80;;;15.20;64.30;;;;;;5023540;28;20340;-71
2022/11/09 10:00:42;;;;;;;3.30;2.67;;;15.20;64.40;;;;;;5027495;28;20327;-71
2022/11/09 10:03:17;;;;;;;3.10;2.80;;;15.20;64.40;;;;;;5027480;28;20010;-71
2022/11/09 10:06:17;;;;;;;3.20;2.53;;;15.10;64.50;;;;;;5027386;28;20014;-72
2022/11/09 10:08:50;;;;;;;2.97;2.65;;;15.10;64.50;;;;;;5027427;28;20022;-71
2022/11/09 10:11:21;;;;;;;3.20;2.90;;;15.10;64.40;;;;;;5027412;28;20046;-71
2022/11/09 10:14:18;;;;;;;2.53;2.25;;;15.20;64.40;;;;;;5027268;28;20014;-72
2022/11/09 10:17:11;;;;;;;3.95;2.80;;;15.20;64.40;;;;;;5027227;28;20049;-71
2022/11/09 10:19:58;;;;;;;3.22;2.85;;;15.20;64.40;;;;;;5024102;28;20084;-72
2022/11/09 10:22:32;;;;;;;3.42;2.65;;;15.20;64.30;;;;;;5027193;28;20029;-71
2022/11/09 10:25:27;;;;;;;2.97;2.55;;;15.20;64.30;;;;;;5027079;28;20018;-72
2022/11/09 10:28:02;;;;;;;2.72;2.50;;;15.20;64.30;;;;;;5042227;28;20057;-71
2022/11/09 10:30:31;;;;;;;3.00;2.70;;;15.20;64.40;;;;;;5026961;28;20029;-71
2022/11/09 10:33:17;;;;;;;2.67;2.45;;;15.20;64.30;;;;;;5026955;28;20013;-72
2022/11/09 10:35:48;;;;;;;3.78;2.63;;;15.20;64.30;;;;;;5042282;28;20241;-71
2022/11/09 10:38:21;;;;;;;2.75;2.45;;;15.20;64.30;;;;;;5026869;28;20067;-71
2022/11/09 10:40:54;;;;;;;3.10;2.30;;;15.20;64.30;;;;;;5026724;28;20018;-71
2022/11/09 10:43:22;;;;;;;3.35;2.78;;;15.20;64.30;;;;;;5026780;28;20010;-71
2022/11/09 10:46:04;;;;;;;3.03;2.45;;;15.20;64.40;;;;;;5026682;28;20290;-71
2022/11/09 10:48:35;;;;;;;3.55;2.70;;;15.20;64.40;;;;;;5026705;28;20029;-72
2022/11/09 10:51:02;;;;;;;3.38;2.63;;;15.20;64.30;;;;;;5026604;28;20021;-71
2022/11/09 10:53:32;;;;;;;3.05;2.72;;;15.20;64.30;;;;;;5026576;28;20018;-71
2022/11/09 10:56:18;;;;;;;3.47;2.53;;;15.20;64.30;;;;;;5041861;28;20021;-71
2022/11/09 10:58:48;;;;;;;3.70;2.28;;;15.20;64.30;;;;;;5041735;28;20097;-72
2022/11/09 11:01:22;;;;;;;3.80;2.63;;;15.20;64.30;;;;;;5026408;28;20099;-72
2022/11/09 11:03:53;;;;;;;3.80;2.97;;;15.20;64.40;;;;;;5026403;28;20029;-72
2022/11/09 11:06:22;;;;;;;4.15;3.60;;;15.10;64.40;;;;;;5026322;28;20324;-71
2022/11/09 11:08:52;;;;;;;;;;;15.20;64.40;;;;;;5026723;28;20018;-72
2022/11/09 11:11:43;;;;;;;4.20;3.13;;;15.20;64.30;;;;;;5024991;28;19901;-72
2022/11/09 11:14:30;;;;;;;4.30;3.28;;;15.20;64.30;;;;;;5025077;28;20335;-71
2022/11/09 11:16:56;;;;;;;3.28;2.53;;;15.20;64.40;;;;;;5026118;28;20085;-71
2022/11/09 11:19:35;;;;;;;3.20;2.88;;;15.20;64.40;;;;;;5041319;28;20420;-71
2022/11/09 11:22:10;;;;;;;3.53;2.75;;;15.10;64.40;;;;;;5026046;28;20376;-72
2022/11/09 11:25:16;;;;;;;3.70;2.88;;;15.10;64.40;;;;;;5025948;28;20022;-72
2022/11/09 11:27:50;;;;;;;3.17;2.75;;;15.20;64.40;;;;;;5022789;28;20101;-72
2022/11/09 11:30:37;;;;;;;4.32;3.13;;;15.10;64.40;;;;;;5025885;28;20022;-71
2022/11/09 11:33:13;;;;;;;3.63;2.67;;;15.10;64.40;;;;;;5025823;28;20018;-72
2022/11/09 11:35:52;;;;;;;3.00;2.63;;;15.10;64.50;;;;;;5025807;28;20036;-72
2022/11/09 11:38:30;;;;;;;4.28;3.13;;;15.20;64.50;;;;;;5025739;28;20021;-71
2022/11/09 11:41:14;;;;;;;3.00;2.70;;;15.10;64.40;;;;;;5025707;28;20205;-71
2022/11/09 11:44:17;;;;;;;4.65;3.17;;;15.10;64.50;;;;;;5025639;28;20014;-71
2022/11/09 11:46:47;;;;;;;3.38;2.90;;;15.20;64.50;;;;;;5025518;28;20328;-71
2022/11/09 11:49:31;;;;;;;3.78;2.92;;;15.10;64.40;;;;;;5041196;28;20297;-72
2022/11/09 11:52:22;;;;;;;3.28;2.35;;;15.10;64.40;;;;;;5025500;28;20018;-72
2022/11/09 11:55:09;;;;;;;2.72;2.22;;;15.10;64.40;;;;;;5025429;28;20014;-71
2022/11/09 11:57:56;;;;;;;3.47;2.83;;;15.10;64.40;;;;;;5025345;28;20018;-71
2022/11/09 12:00:21;;;;;;;2.92;2.35;;;15.10;64.40;;;;;;5040599;28;20041;-71
2022/11/09 12:03:18;;;;;;;4.18;3.15;;;15.10;64.40;;;;;;5025196;28;20210;-72
2022/11/09 12:06:12;;;;;;;3.63;3.00;;;15.10;64.40;;;;;;5040634;28;20018;-72
2022/11/09 12:09:07;;;;;;;3.58;2.95;;;15.20;65.10;;;;;;5025176;28;20025;-71
2022/11/09 12:11:56;;;;;;;3.17;2.45;;;15.10;64.50;;;;;;5025183;28;20089;-70
2022/11/09 12:14:31;;;;;;;4.32;2.92;;;15.10;64.40;;;;;;5025072;28;20013;-72
2022/11/09 12:16:57;;;;;;;4.07;3.22;;;15.10;64.40;;;;;;5025319;28;20022;-71
2022/11/09 12:19:47;;;;;;;3.25;2.80;;;15.10;64.50;;;;;;5024876;28;20081;-71
2022/11/09 12:22:20;;;;;;;3.65;2.70;;;15.10;64.50;;;;;;5039907;28;20060;-72
2022/11/09 12:25:10;;;;;;;4.60;3.50;;;15.10;64.50;;;;;;5024893;28;20205;-71
2022/11/09 12:28:00;;;;;;;3.28;2.60;;;15.10;64.40;;;;;;5024652;28;20348;-70
2022/11/09 12:30:40;;;;;;;3.42;2.67;;;15.20;64.40;;;;;;5024795;28;20025;-71
2022/11/09 12:33:25;;;;;;;3.85;3.38;;;15.20;64.40;;;;;;5040027;28;20018;-72
2022/11/09 12:35:58;;;;;;;4.28;3.17;;;15.20;64.30;;;;;;5024686;28;20025;-71
2022/11/09 12:38:36;;;;;;;4.03;3.00;;;15.20;64.30;;;;;;5039969;28;20018;-71
2022/11/09 12:41:14;;;;;;;8.43;3.00;;;15.20;64.30;;;;;;5024652;28;20032;-71
2022/11/09 12:43:52;;;;;;;7.82;3.40;;;15.20;64.30;;;;;;5024592;28;20313;-71
2022/11/09 12:46:23;;;;;;;2.72;2.53;;;15.20;64.30;;;;;;5024520;28;20081;-71
2022/11/09 12:48:49;;;;;;;3.45;3.00;;;15.20;64.20;;;;;;5039790;28;20187;-71
2022/11/09 12:51:16;;;;;;;3.28;2.50;;;15.20;64.20;;;;;;5024388;28;20021;-71
2022/11/09 12:53:42;;;;;;;3.15;2.50;;;15.20;64.30;;;;;;5039688;28;20358;-72
2022/11/09 12:56:17;;;;;;;3.42;2.95;;;15.20;64.20;;;;;;5024308;28;20018;-72
2022/11/09 12:58:43;;;;;;;4.22;3.00;;;15.20;64.30;;;;;;5024210;28;20035;-71
2022/11/09 13:01:32;;;;;;;4.35;3.10;;;15.20;64.30;;;;;;5039589;28;20022;-71
2022/11/09 13:04:03;;;;;;;4.55;3.38;;;15.20;64.30;;;;;;5021247;28;20030;-72